createdAt,value
2023-01-26T00:00:21.479Z,100343.03
2023-01-26T00:02:51.109Z,100347.88
2023-01-26T00:05:20.679Z,100333.63
2023-01-26T00:07:50.191Z,100333.47
2023-01-26T00:10:19.916Z,100329.75
2023-01-26T00:12:49.431Z,100337.47
2023-01-26T00:15:21.596Z,100328.88
2023-01-26T00:17:51.566Z,100318.22
2023-01-26T00:20:21.360Z,100306.88
2023-01-26T00:22:51.215Z,100308.56
2023-01-26T00:25:20.732Z,100314.13
2023-01-26T00:27:50.408Z,100301.69
2023-01-26T00:30:22.837Z,100303.22
2023-01-26T00:32:52.449Z,100298.84
2023-01-26T00:35:22.046Z,100295.13
2023-01-26T00:37:51.604Z,100285.72
2023-01-26T00:40:21.385Z,100289.09
2023-01-26T00:42:50.905Z,100283.22
2023-01-26T00:45:23.810Z,100280.72
2023-01-26T00:47:53.347Z,100271.81
2023-01-26T00:50:23.592Z,100266.63
2023-01-26T00:52:53.921Z,100258.56
2023-01-26T00:55:23.576Z,100265.09
2023-01-26T00:57:53.500Z,100262.22
2023-01-26T01:00:25.609Z,100264.25
2023-01-26T01:02:56.378Z,100267.44
2023-01-26T01:05:26.271Z,100266.59
2023-01-26T01:07:56.290Z,100257.38
2023-01-26T01:10:27.530Z,100264.25
2023-01-26T01:12:57.765Z,100263.94
2023-01-26T01:15:29.875Z,100272.63
2023-01-26T01:17:59.406Z,100273.00
2023-01-26T01:20:29.916Z,100269.63
2023-01-26T01:22:59.456Z,100263.19
2023-01-26T01:25:30.395Z,100269.06
2023-01-26T01:27:59.908Z,100261.69
2023-01-26T01:30:31.986Z,100266.91
2023-01-26T01:33:02.004Z,100277.63
2023-01-26T01:35:31.764Z,100264.25
2023-01-26T01:38:01.564Z,100261.28
2023-01-26T01:40:31.285Z,100266.38
2023-01-26T01:43:01.171Z,100269.16
2023-01-26T01:45:42.526Z,100269.53
2023-01-26T01:48:21.379Z,100254.16
2023-01-26T01:50:52.604Z,100255.84
2023-01-26T01:53:27.361Z,100252.28
2023-01-26T01:55:59.834Z,100243.47
2023-01-26T01:58:31.088Z,100235.19
2023-01-26T02:01:03.768Z,100233.84
2023-01-26T02:03:35.479Z,100229.34
2023-01-26T02:06:10.090Z,100227.31
2023-01-26T02:08:42.124Z,100222.28
2023-01-26T02:11:17.510Z,100218.91
2023-01-26T02:13:50.288Z,100215.44
2023-01-26T02:16:22.923Z,100215.50
2023-01-26T02:18:52.598Z,100212.75
2023-01-26T02:21:25.811Z,100213.19
2023-01-26T02:24:12.158Z,100207.88
2023-01-26T02:26:44.814Z,100201.88
2023-01-26T02:29:15.395Z,100195.03
2023-01-26T02:31:47.015Z,100201.69
2023-01-26T02:34:16.645Z,100201.59
2023-01-26T02:36:46.202Z,100193.81
2023-01-26T02:39:25.212Z,100185.16
2023-01-26T02:42:10.068Z,100189.53
2023-01-26T02:44:40.333Z,100189.38
2023-01-26T02:47:15.101Z,100190.06
2023-01-26T02:49:47.923Z,100190.06
2023-01-26T02:52:20.701Z,100193.41
2023-01-26T02:55:09.625Z,100203.50
2023-01-26T02:57:42.036Z,100203.34
2023-01-26T03:00:14.179Z,100206.19
2023-01-26T03:02:44.472Z,100201.84
2023-01-26T03:05:13.993Z,100206.53
2023-01-26T03:07:43.987Z,100201.28
2023-01-26T03:10:16.176Z,100204.53
2023-01-26T03:12:48.883Z,100198.63
2023-01-26T03:15:33.160Z,100199.66
2023-01-26T03:18:19.061Z,100196.22
2023-01-26T03:21:01.167Z,100200.81
2023-01-26T03:23:43.365Z,100198.63
2023-01-26T03:26:29.575Z,100196.81
2023-01-26T03:29:02.079Z,100187.03
2023-01-26T03:31:31.679Z,100188.56
2023-01-26T03:34:01.286Z,100181.53
2023-01-26T03:36:32.144Z,100184.72
2023-01-26T03:39:02.328Z,100181.84
2023-01-26T03:41:44.557Z,100170.94
2023-01-26T03:44:29.332Z,100167.78
2023-01-26T03:47:12.440Z,100168.94
2023-01-26T03:49:55.260Z,100167.41
2023-01-26T03:52:37.344Z,100163.38
2023-01-26T03:55:20.551Z,100161.38
2023-01-26T03:57:50.990Z,100166.25
2023-01-26T04:00:24.225Z,100160.41
2023-01-26T04:03:06.961Z,100156.81
2023-01-26T04:05:50.059Z,100156.03
2023-01-26T04:08:29.323Z,100148.81
2023-01-26T04:11:05.826Z,100155.84
2023-01-26T04:13:47.908Z,100156.88
2023-01-26T04:16:39.832Z,100155.84
2023-01-26T04:19:22.498Z,100162.88
2023-01-26T04:21:52.107Z,100152.00
2023-01-26T04:24:24.679Z,100155.81
2023-01-26T04:26:58.122Z,100159.38
2023-01-26T04:29:42.181Z,100146.25
2023-01-26T04:32:14.375Z,100153.16
2023-01-26T04:34:44.345Z,100154.19
2023-01-26T04:37:22.219Z,100147.47
2023-01-26T04:39:51.790Z,100152.34
2023-01-26T04:42:24.434Z,100144.88
2023-01-26T04:44:54.611Z,100147.78
2023-01-26T04:47:29.272Z,100138.53
2023-01-26T04:49:59.064Z,100143.34
2023-01-26T04:52:29.625Z,100152.97
2023-01-26T04:54:59.531Z,100156.00
2023-01-26T04:57:29.072Z,100145.13
2023-01-26T04:59:58.649Z,100151.50
2023-01-26T05:02:30.793Z,100149.06
2023-01-26T05:05:00.345Z,100148.81
2023-01-26T05:07:30.097Z,100145.59
2023-01-26T05:10:00.137Z,100144.28
2023-01-26T05:12:45.250Z,100139.03
2023-01-26T05:15:35.693Z,100143.44
2023-01-26T05:18:16.513Z,100137.72
2023-01-26T05:21:05.450Z,100140.44
2023-01-26T05:23:41.980Z,100145.59
2023-01-26T05:26:14.173Z,100150.63
2023-01-26T05:28:56.241Z,100141.72
2023-01-26T05:31:25.918Z,100152.13
2023-01-26T05:33:58.832Z,100156.00
2023-01-26T05:36:28.391Z,100159.88
2023-01-26T05:38:58.084Z,100160.50
2023-01-26T05:41:29.326Z,100157.03
2023-01-26T05:44:11.377Z,100157.84
2023-01-26T05:46:45.283Z,100152.13
2023-01-26T05:49:17.427Z,100157.31
2023-01-26T05:51:47.047Z,100157.50
2023-01-26T05:54:17.611Z,100165.56
2023-01-26T05:56:47.173Z,100163.56
2023-01-26T05:59:16.723Z,100160.22
2023-01-26T06:01:46.388Z,100157.69
2023-01-26T06:04:18.693Z,100160.72
2023-01-26T06:06:55.592Z,100164.56
2023-01-26T06:09:28.140Z,100163.81
2023-01-26T06:12:20.414Z,100168.59
2023-01-26T06:14:58.860Z,100171.28
2023-01-26T06:17:37.362Z,100166.56
2023-01-26T06:20:14.825Z,100169.97
2023-01-26T06:22:49.243Z,100169.97
2023-01-26T06:25:19.115Z,100170.63
2023-01-26T06:27:49.305Z,100170.28
2023-01-26T06:30:27.402Z,100165.75
2023-01-26T06:33:01.348Z,100162.56
2023-01-26T06:35:36.045Z,100157.50
2023-01-26T06:38:07.328Z,100157.81
2023-01-26T06:40:37.501Z,100162.03
2023-01-26T06:43:07.087Z,100161.91
2023-01-26T06:45:36.843Z,100161.84
2023-01-26T06:48:06.698Z,100160.38
2023-01-26T06:50:39.119Z,100159.03
2023-01-26T06:53:28.817Z,100158.50
2023-01-26T06:56:18.274Z,100162.66
2023-01-26T06:59:06.989Z,100162.56
2023-01-26T07:01:57.149Z,100165.25
2023-01-26T07:04:28.658Z,100160.53
2023-01-26T07:07:00.851Z,100161.84
2023-01-26T07:09:30.763Z,100157.50
2023-01-26T07:12:00.313Z,100156.69
2023-01-26T07:14:30.048Z,100160.72
2023-01-26T07:16:59.940Z,100165.56
2023-01-26T07:19:30.453Z,100164.56
2023-01-26T07:22:02.635Z,100163.09
2023-01-26T07:24:32.914Z,100166.75
2023-01-26T07:27:02.568Z,100163.56
2023-01-26T07:29:32.125Z,100168.44
2023-01-26T07:32:01.776Z,100176.31
2023-01-26T07:34:31.377Z,100175.31
2023-01-26T07:37:03.528Z,100168.59
2023-01-26T07:39:33.096Z,100174.50
2023-01-26T07:42:02.629Z,100174.81
2023-01-26T07:45:04.235Z,100178.00
2023-01-26T07:47:33.810Z,100179.63
2023-01-26T07:50:03.319Z,100178.97
2023-01-26T07:52:35.457Z,100175.78
2023-01-26T07:55:05.057Z,100175.03
2023-01-26T07:57:34.883Z,100180.38
2023-01-26T08:00:04.708Z,100183.22
2023-01-26T08:02:41.419Z,100181.03
2023-01-26T08:05:12.167Z,100195.94
2023-01-26T08:07:44.298Z,100196.03
2023-01-26T08:10:15.016Z,100195.75
2023-01-26T08:12:44.677Z,100186.34
2023-01-26T08:15:14.805Z,100196.06
2023-01-26T08:17:44.359Z,100200.75
2023-01-26T08:20:14.843Z,100196.41
2023-01-26T08:22:47.011Z,100199.00
2023-01-26T08:25:16.805Z,100198.41
2023-01-26T08:27:46.339Z,100201.44
2023-01-26T08:30:16.578Z,100199.13
2023-01-26T08:32:46.095Z,100200.75
2023-01-26T08:35:15.698Z,100195.66
2023-01-26T08:37:47.787Z,100194.38
2023-01-26T08:40:17.642Z,100190.28
2023-01-26T08:42:47.216Z,100190.34
2023-01-26T08:45:16.915Z,100195.63
2023-01-26T08:47:46.576Z,100199.59
2023-01-26T08:50:16.172Z,100209.50
2023-01-26T08:52:48.452Z,100208.34
2023-01-26T08:55:18.500Z,100190.66
2023-01-26T08:57:48.222Z,100190.28
2023-01-26T09:00:18.602Z,100189.31
2023-01-26T09:02:49.362Z,100196.91
2023-01-26T09:05:19.031Z,100206.72
2023-01-26T09:07:51.134Z,100199.91
2023-01-26T09:10:20.689Z,100193.16
2023-01-26T09:12:50.323Z,100191.25
2023-01-26T09:15:20.195Z,100192.72
2023-01-26T09:17:51.301Z,100195.28
2023-01-26T09:20:21.546Z,100190.88
2023-01-26T09:22:54.708Z,100199.38
2023-01-26T09:25:24.304Z,100199.28
2023-01-26T09:27:53.941Z,100194.56
2023-01-26T09:30:24.860Z,100188.63
2023-01-26T09:32:54.618Z,100179.06
2023-01-26T09:35:24.196Z,100188.34
2023-01-26T09:37:56.357Z,100185.88
2023-01-26T09:40:38.705Z,100182.22
2023-01-26T09:43:23.829Z,100186.47
2023-01-26T09:46:03.962Z,100193.91
2023-01-26T09:48:41.167Z,100187.75
2023-01-26T09:51:16.302Z,100179.06
2023-01-26T09:53:57.167Z,100178.25
2023-01-26T09:56:31.011Z,100193.88
2023-01-26T09:59:06.658Z,100196.91
2023-01-26T10:01:39.434Z,100190.25
2023-01-26T10:04:17.542Z,100188.91
2023-01-26T10:06:47.341Z,100185.59
2023-01-26T10:09:32.737Z,100188.19
2023-01-26T10:12:05.718Z,100190.91
2023-01-26T10:14:40.744Z,100180.13
2023-01-26T10:17:17.902Z,100192.66
2023-01-26T10:19:51.972Z,100179.25
2023-01-26T10:22:30.890Z,100177.91
2023-01-26T10:25:03.838Z,100181.56
2023-01-26T10:27:33.361Z,100190.00
2023-01-26T10:30:02.898Z,100184.25
2023-01-26T10:32:35.544Z,100185.22
2023-01-26T10:35:05.267Z,100174.03
2023-01-26T10:37:37.583Z,100158.41
2023-01-26T10:40:12.051Z,100156.00
2023-01-26T10:42:42.758Z,100163.91
2023-01-26T10:45:28.171Z,100146.97
2023-01-26T10:48:06.894Z,100147.25
2023-01-26T10:50:36.585Z,100140.84
2023-01-26T10:53:08.291Z,100135.81
2023-01-26T10:55:40.486Z,100138.03
2023-01-26T10:58:44.855Z,100131.09
2023-01-26T11:01:18.802Z,100132.19
2023-01-26T11:04:04.654Z,100130.06
2023-01-26T11:06:35.580Z,100123.22
2023-01-26T11:09:13.516Z,100122.19
2023-01-26T11:11:58.529Z,100107.91
2023-01-26T11:14:28.101Z,100115.31
2023-01-26T11:17:04.055Z,100106.97
2023-01-26T11:19:55.810Z,100096.28
2023-01-26T11:22:34.364Z,100102.25
2023-01-26T11:25:16.485Z,100092.84
2023-01-26T11:28:02.001Z,100097.97
2023-01-26T11:30:48.474Z,100084.78
2023-01-26T11:33:27.876Z,100091.09
2023-01-26T11:36:04.138Z,100076.50
2023-01-26T11:38:40.884Z,100073.91
2023-01-26T11:41:25.321Z,100071.03
2023-01-26T11:44:19.151Z,100067.09
2023-01-26T11:47:02.569Z,100071.91
2023-01-26T11:49:52.950Z,100066.81
2023-01-26T11:52:32.695Z,100064.72
2023-01-26T11:55:19.607Z,100065.69
2023-01-26T11:58:05.372Z,100071.59
2023-01-26T12:00:43.435Z,100056.13
2023-01-26T12:03:21.287Z,100049.38
2023-01-26T12:05:54.916Z,100046.88
2023-01-26T12:08:29.409Z,100041.91
2023-01-26T12:11:22.667Z,100035.78
2023-01-26T12:14:11.060Z,100046.38
2023-01-26T12:17:16.816Z,100035.59
2023-01-26T12:19:55.504Z,100037.63
2023-01-26T12:22:34.074Z,100027.81
2023-01-26T12:25:19.369Z,100033.47
2023-01-26T12:27:55.908Z,100026.03
2023-01-26T12:30:33.628Z,100034.06
2023-01-26T12:33:06.317Z,100029.41
2023-01-26T12:35:48.665Z,100035.88
2023-01-26T12:38:24.762Z,100038.03
2023-01-26T12:41:08.551Z,100031.34
2023-01-26T12:43:54.678Z,100030.91
2023-01-26T12:46:25.244Z,100028.09
2023-01-26T12:49:00.520Z,100020.69
2023-01-26T12:51:35.275Z,100026.09
2023-01-26T12:54:09.991Z,100014.00
2023-01-26T12:56:44.484Z,100022.22
2023-01-26T12:59:47.155Z,100016.28
2023-01-26T13:02:28.951Z,100018.81
2023-01-26T13:05:03.482Z,100021.50
2023-01-26T13:07:36.878Z,100021.84
2023-01-26T13:10:27.187Z,100026.72
2023-01-26T13:12:59.582Z,100022.88
2023-01-26T13:15:31.812Z,100025.78
2023-01-26T13:18:03.716Z,100025.91
2023-01-26T13:20:48.570Z,100023.34
2023-01-26T13:23:40.946Z,100026.44
2023-01-26T13:26:47.513Z,100023.41
2023-01-26T13:29:34.760Z,100021.41
2023-01-26T13:32:34.539Z,100025.88
2023-01-26T13:35:05.819Z,100021.41
2023-01-26T13:37:49.074Z,100028.28
2023-01-26T13:40:23.934Z,100031.16
2023-01-26T13:43:01.110Z,100028.56
2023-01-26T13:45:36.577Z,100032.63
2023-01-26T13:48:13.713Z,100041.91
2023-01-26T13:50:43.704Z,100041.28
2023-01-26T13:53:42.308Z,100040.06
2023-01-26T13:56:25.017Z,100042.59
2023-01-26T13:58:54.949Z,100033.19
2023-01-26T14:01:24.576Z,100033.25
2023-01-26T14:04:05.456Z,100050.72
2023-01-26T14:06:36.986Z,100051.22
2023-01-26T14:09:15.166Z,100050.88
2023-01-26T14:11:45.904Z,100050.38
2023-01-26T14:14:26.178Z,100045.22
2023-01-26T14:17:00.813Z,100050.56
2023-01-26T14:19:32.231Z,100039.50
2023-01-26T14:22:05.290Z,100040.91
2023-01-26T14:24:39.803Z,100052.19
2023-01-26T14:27:29.896Z,100049.06
2023-01-26T14:29:59.918Z,100051.09
2023-01-26T14:32:30.344Z,100044.59
2023-01-26T14:35:01.951Z,100054.25
2023-01-26T14:37:31.620Z,100055.06
2023-01-26T14:40:23.149Z,100053.75
2023-01-26T14:42:55.217Z,100048.91
2023-01-26T14:45:31.249Z,100053.47
2023-01-26T14:48:04.775Z,100062.03
2023-01-26T14:50:34.971Z,100060.34
2023-01-26T14:53:06.971Z,100062.28
2023-01-26T14:55:39.287Z,100060.06
2023-01-26T14:58:18.409Z,100064.31
2023-01-26T15:00:51.825Z,100056.44
2023-01-26T15:03:28.713Z,100067.47
2023-01-26T15:06:20.433Z,100067.56
2023-01-26T15:09:01.941Z,100071.53
2023-01-26T15:11:50.969Z,100076.34
2023-01-26T15:14:38.384Z,100078.88
2023-01-26T15:17:08.749Z,100079.47
2023-01-26T15:19:43.671Z,100077.59
2023-01-26T15:22:23.048Z,100076.72
2023-01-26T15:25:08.667Z,100093.22
2023-01-26T15:27:40.824Z,100097.66
2023-01-26T15:30:19.532Z,100094.97
2023-01-26T15:32:49.392Z,100090.22
2023-01-26T15:35:27.995Z,100092.09
2023-01-26T15:38:05.453Z,100088.81
2023-01-26T15:40:35.413Z,100080.94
2023-01-26T15:43:14.359Z,100087.84
2023-01-26T15:45:49.833Z,100083.72
2023-01-26T15:48:19.398Z,100088.09
2023-01-26T15:50:49.893Z,100078.44
2023-01-26T15:53:22.612Z,100086.81
2023-01-26T15:55:56.319Z,100093.00
2023-01-26T15:58:28.864Z,100093.13
2023-01-26T16:00:58.860Z,100095.28
2023-01-26T16:03:28.953Z,100110.25
2023-01-26T16:05:58.509Z,100104.00
2023-01-26T16:08:28.037Z,100107.41
2023-01-26T16:10:59.695Z,100107.84
2023-01-26T16:13:34.033Z,100106.22
2023-01-26T16:16:03.785Z,100108.28
2023-01-26T16:18:33.452Z,100115.13
2023-01-26T16:21:03.085Z,100112.84
2023-01-26T16:23:32.617Z,100110.22
2023-01-26T16:26:02.200Z,100119.44
2023-01-26T16:28:34.523Z,100114.47
2023-01-26T16:31:04.462Z,100122.81
2023-01-26T16:33:33.974Z,100115.00
2023-01-26T16:36:03.500Z,100124.09
2023-01-26T16:38:33.035Z,100125.16
2023-01-26T16:41:02.594Z,100112.91
2023-01-26T16:43:34.700Z,100108.34
2023-01-26T16:46:04.395Z,100103.69
2023-01-26T16:48:35.085Z,100100.06
2023-01-26T16:51:17.021Z,100109.97
2023-01-26T16:53:47.017Z,100107.56
2023-01-26T16:56:18.284Z,100100.66
2023-01-26T16:58:50.672Z,100111.03
2023-01-26T17:01:23.109Z,100114.47
2023-01-26T17:03:53.354Z,100111.34
2023-01-26T17:06:23.289Z,100111.94
2023-01-26T17:08:52.913Z,100115.50
2023-01-26T17:11:27.426Z,100115.13
2023-01-26T17:13:59.982Z,100112.84
2023-01-26T17:16:33.012Z,100109.56
2023-01-26T17:19:02.960Z,100118.00
2023-01-26T17:21:32.720Z,100122.19
2023-01-26T17:24:02.266Z,100118.19
2023-01-26T17:26:31.804Z,100116.97
2023-01-26T17:29:04.006Z,100119.28
2023-01-26T17:31:34.369Z,100114.63
2023-01-26T17:34:04.216Z,100120.41
2023-01-26T17:36:33.790Z,100113.09
2023-01-26T17:39:03.356Z,100122.41
2023-01-26T17:41:32.910Z,100119.09
2023-01-26T17:44:05.014Z,100122.31
2023-01-26T17:46:34.594Z,100129.13
2023-01-26T17:49:04.094Z,100125.06
2023-01-26T17:51:33.635Z,100134.97
2023-01-26T17:54:03.162Z,100141.63
2023-01-26T17:56:33.099Z,100139.19
2023-01-26T17:59:05.486Z,100141.50
2023-01-26T18:01:35.065Z,100143.66
2023-01-26T18:04:05.085Z,100141.63
2023-01-26T18:06:34.846Z,100133.44
2023-01-26T18:09:04.568Z,100131.94
2023-01-26T18:11:34.398Z,100142.16
2023-01-26T18:14:07.431Z,100139.56
2023-01-26T18:16:37.101Z,100141.13
2023-01-26T18:19:06.732Z,100149.94
2023-01-26T18:21:37.041Z,100154.19
2023-01-26T18:24:08.849Z,100150.41
2023-01-26T18:26:40.357Z,100148.09
2023-01-26T18:29:14.845Z,100144.38
2023-01-26T18:31:44.399Z,100143.50
2023-01-26T18:34:14.782Z,100143.94
2023-01-26T18:36:44.354Z,100149.88
2023-01-26T18:39:16.873Z,100144.09
2023-01-26T18:41:46.426Z,100148.25
2023-01-26T18:44:18.586Z,100144.31
2023-01-26T18:46:48.239Z,100156.63
2023-01-26T18:49:17.767Z,100157.13
2023-01-26T18:51:48.244Z,100144.09
2023-01-26T18:54:18.829Z,100139.50
2023-01-26T18:56:48.946Z,100143.94
2023-01-26T18:59:21.616Z,100144.66
2023-01-26T19:01:51.368Z,100146.50
2023-01-26T19:04:21.036Z,100156.59
2023-01-26T19:06:50.606Z,100157.72
2023-01-26T19:09:21.354Z,100146.94
2023-01-26T19:11:51.421Z,100142.22
2023-01-26T19:14:23.653Z,100141.84
2023-01-26T19:16:53.975Z,100141.94
2023-01-26T19:19:23.732Z,100137.53
2023-01-26T19:21:53.372Z,100136.44
2023-01-26T19:24:23.065Z,100137.88
2023-01-26T19:26:52.648Z,100136.69
2023-01-26T19:29:24.942Z,100138.81
2023-01-26T19:31:54.613Z,100143.91
2023-01-26T19:34:24.469Z,100145.94
2023-01-26T19:36:54.023Z,100139.88
2023-01-26T19:39:23.592Z,100144.91
2023-01-26T19:41:53.235Z,100145.78
2023-01-26T19:44:25.371Z,100150.38
2023-01-26T19:46:55.888Z,100144.25
2023-01-26T19:49:25.868Z,100146.00
2023-01-26T19:51:56.683Z,100145.41
2023-01-26T19:54:26.331Z,100150.06
2023-01-26T19:56:55.934Z,100147.84
2023-01-26T19:59:28.533Z,100151.69
2023-01-26T20:01:58.830Z,100158.78
2023-01-26T20:04:28.409Z,100159.09
2023-01-26T20:06:57.983Z,100159.09
2023-01-26T20:09:27.504Z,100156.00
2023-01-26T20:11:57.069Z,100160.06
2023-01-26T20:14:29.564Z,100151.47
2023-01-26T20:16:59.114Z,100152.31
2023-01-26T20:19:28.849Z,100145.84
2023-01-26T20:21:58.790Z,100153.41
2023-01-26T20:24:28.609Z,100154.03
2023-01-26T20:26:58.268Z,100153.84
2023-01-26T20:29:30.513Z,100154.53
2023-01-26T20:32:00.392Z,100160.66
2023-01-26T20:34:30.058Z,100156.00
2023-01-26T20:37:00.322Z,100158.06
2023-01-26T20:39:30.755Z,100160.63
2023-01-26T20:42:00.296Z,100162.81
2023-01-26T20:44:32.409Z,100158.41
2023-01-26T20:47:01.943Z,100164.34
2023-01-26T20:49:31.598Z,100167.88
2023-01-26T20:52:01.153Z,100159.72
2023-01-26T20:54:30.695Z,100163.50
2023-01-26T20:57:00.331Z,100163.88
2023-01-26T20:59:32.629Z,100161.59
2023-01-26T21:02:02.323Z,100166.63
2023-01-26T21:04:32.266Z,100170.66
2023-01-26T21:07:01.880Z,100170.88
2023-01-26T21:09:31.438Z,100159.75
2023-01-26T21:12:01.078Z,100167.75
2023-01-26T21:14:33.212Z,100165.84
2023-01-26T21:17:02.810Z,100167.06
2023-01-26T21:19:32.590Z,100163.19
2023-01-26T21:22:02.169Z,100166.63
2023-01-26T21:24:31.949Z,100165.69
2023-01-26T21:27:02.760Z,100176.13
2023-01-26T21:29:34.918Z,100180.41
2023-01-26T21:32:04.472Z,100170.97
2023-01-26T21:34:34.069Z,100172.47
2023-01-26T21:37:03.748Z,100171.59
2023-01-26T21:39:33.527Z,100166.28
2023-01-26T21:42:03.053Z,100156.19
2023-01-26T21:44:55.984Z,100161.97
2023-01-26T21:47:25.701Z,100164.91
2023-01-26T21:49:56.238Z,100162.66
2023-01-26T21:52:38.329Z,100162.50
2023-01-26T21:55:08.604Z,100158.53
2023-01-26T21:57:50.715Z,100159.06
2023-01-26T22:00:23.758Z,100159.41
2023-01-26T22:02:54.539Z,100158.75
2023-01-26T22:05:24.114Z,100161.16
2023-01-26T22:07:53.714Z,100160.78
2023-01-26T22:10:23.298Z,100162.22
2023-01-26T22:12:52.811Z,100170.09
2023-01-26T22:15:24.978Z,100161.72
2023-01-26T22:17:54.495Z,100168.03
2023-01-26T22:20:24.075Z,100163.41
2023-01-26T22:22:53.589Z,100167.56
2023-01-26T22:25:23.203Z,100164.47
2023-01-26T22:27:53.041Z,100160.06
2023-01-26T22:30:25.222Z,100156.91
2023-01-26T22:32:54.884Z,100159.78
2023-01-26T22:35:24.531Z,100155.06
2023-01-26T22:37:56.249Z,100153.19
2023-01-26T22:40:25.973Z,100158.06
2023-01-26T22:42:56.148Z,100159.53
2023-01-26T22:45:28.398Z,100157.13
2023-01-26T22:47:57.948Z,100154.13
2023-01-26T22:50:28.369Z,100152.44
2023-01-26T22:52:57.901Z,100154.41
2023-01-26T22:55:27.444Z,100163.81
2023-01-26T22:57:57.383Z,100158.59
2023-01-26T23:00:30.377Z,100161.22
2023-01-26T23:03:00.957Z,100155.84
2023-01-26T23:05:30.645Z,100149.94
2023-01-26T23:08:00.265Z,100144.81
2023-01-26T23:10:30.833Z,100149.75
2023-01-26T23:13:00.522Z,100142.06
2023-01-26T23:15:32.673Z,100147.28
2023-01-26T23:18:02.207Z,100139.44
2023-01-26T23:20:31.730Z,100139.81
2023-01-26T23:23:01.275Z,100136.66
2023-01-26T23:25:43.343Z,100136.19
2023-01-26T23:28:12.882Z,100136.19
2023-01-26T23:30:45.306Z,100141.94
2023-01-26T23:33:15.462Z,100142.81
2023-01-26T23:35:45.599Z,100139.06
2023-01-26T23:38:15.828Z,100130.72
2023-01-26T23:40:46.375Z,100136.09
2023-01-26T23:43:17.350Z,100138.13
2023-01-26T23:45:51.869Z,100143.44
2023-01-26T23:48:22.376Z,100142.72
2023-01-26T23:50:57.157Z,100135.81
2023-01-26T23:53:26.778Z,100142.22
2023-01-26T23:55:56.438Z,100144.00
2023-01-26T23:58:25.992Z,100147.00
